Sheikhupura Weather



Sheikhupura's Current Weather

Temprature 27o smoke

smoke

Rain: 0 %

Min Temprature27o
Max Temprature27o
Humidity78
Wind Speed2.6 m/h
Sun Rise05:33:50
Sun Set18:40:13
Current Time: 23-Aug-2019 06:08:19
Lat/Lon: 31.71, 73.99




Sheikhupura's Geo Location



Sheikhupura's Weather Forecast

Time Overall Temp Min Temp Max Temp Humidity Wind Speed Rain
23-Aug-2019 (Fri)
08:00:00 clear sky 30.500 30.500 31.657 54 2.72 m/h 0 %
11:00:00 clear sky 36.580 36.580 37.450 33 2.51 m/h 0 %
14:00:00 clear sky 41.150 41.150 41.731 22 1.17 m/h 0 %
17:00:00 clear sky 40.420 40.420 40.711 21 3.51 m/h 0 %
20:00:00 scattered clouds 35.150 35.150 35.150 30 2.2 m/h 0 %
23:00:00 few clouds 31.942 31.942 31.942 43 2.86 m/h 0 %
24-Aug-2019 (Sat)
02:00:00 clear sky 30.731 30.731 30.731 47 2.97 m/h 0 %
05:00:00 clear sky 29.655 29.655 29.655 50 2.74 m/h 0 %
08:00:00 clear sky 33.367 33.367 33.367 40 2.73 m/h 0 %
11:00:00 clear sky 39.469 39.469 39.469 24 2.5 m/h 0 %
14:00:00 clear sky 43.369 43.369 43.369 17 1.16 m/h 0 %
17:00:00 few clouds 41.823 41.823 41.823 18 1.09 m/h 0 %
20:00:00 few clouds 35.450 35.450 35.450 30 3.29 m/h 0 %
23:00:00 few clouds 33.869 33.869 33.869 40 5.53 m/h 0 %
25-Aug-2019 (Sun)
02:00:00 clear sky 31.731 31.731 31.731 49 3.99 m/h 0 %
05:00:00 clear sky 29.857 29.857 29.857 55 3.54 m/h 0 %
08:00:00 clear sky 33.814 33.814 33.814 42 3.04 m/h 0 %
11:00:00 clear sky 39.416 39.416 39.416 25 3.25 m/h 0 %
14:00:00 clear sky 43.350 43.350 43.350 18 1.71 m/h 0 %
17:00:00 clear sky 42.750 42.750 42.750 16 1.34 m/h 0 %
20:00:00 few clouds 35.681 35.681 35.681 39 6.17 m/h 0 %
23:00:00 few clouds 33.111 33.111 33.111 50 6.6 m/h 0 %
26-Aug-2019 (Mon)
02:00:00 clear sky 31.165 31.165 31.165 60 5.87 m/h 0 %
05:00:00 clear sky 29.050 29.050 29.050 65 3.6 m/h 0 %
08:00:00 clear sky 29.967 29.967 29.967 63 5.2 m/h 0 %
11:00:00 scattered clouds 37.572 37.572 37.572 38 5.68 m/h 0 %
14:00:00 broken clouds 40.784 40.784 40.784 28 4.75 m/h 0 %
17:00:00 scattered clouds 40.520 40.520 40.520 26 3.23 m/h 0 %
20:00:00 overcast clouds 34.872 34.872 34.872 41 5.95 m/h 0 %
23:00:00 broken clouds 32.014 32.014 32.014 52 3.64 m/h 0 %
27-Aug-2019 (Tue)
02:00:00 few clouds 31.016 31.016 31.016 58 2.28 m/h 0 %
05:00:00 broken clouds 30.050 30.050 30.050 61 2.27 m/h 0 %
08:00:00 overcast clouds 33.335 33.335 33.335 48 1.92 m/h 0 %
11:00:00 broken clouds 38.436 38.436 38.436 34 2.44 m/h 0 %
14:00:00 overcast clouds 39.536 39.536 39.536 30 2.41 m/h 0 %
17:00:00 overcast clouds 39.065 39.065 39.065 31 0.35 m/h 0 %
20:00:00 broken clouds 34.950 34.950 34.950 37 2.23 m/h 0 %
23:00:00 scattered clouds 32.750 32.750 32.750 49 3.49 m/h 0 %
28-Aug-2019 (Wed)
02:00:00 clear sky 31.457 31.457 31.457 57 3 m/h 0 %
05:00:00 clear sky 30.572 30.572 30.572 61 1.87 m/h 0 %

Famous Cities (61)